createdAt,value
2018-03-26T00:02:12.328Z,7.83
2018-03-26T00:04:38.588Z,8.33
2018-03-26T00:07:04.885Z,7.33
2018-03-26T00:09:31.184Z,7.20
2018-03-26T00:11:58.259Z,7.63
2018-03-26T00:14:24.569Z,8.43
2018-03-26T00:16:50.925Z,7.23
2018-03-26T00:19:17.260Z,8.73
2018-03-26T00:21:43.560Z,7.33
2018-03-26T00:24:09.824Z,7.20
2018-03-26T00:26:36.103Z,7.80
2018-03-26T00:29:03.136Z,8.13
2018-03-26T00:31:29.515Z,7.43
2018-03-26T00:33:55.813Z,7.80
2018-03-26T00:36:22.854Z,7.50
2018-03-26T00:38:49.932Z,8.20
2018-03-26T00:41:16.224Z,7.97
2018-03-26T00:43:42.477Z,6.50
2018-03-26T00:46:09.528Z,6.87
2018-03-26T00:48:36.545Z,7.77
2018-03-26T00:51:02.832Z,7.37
2018-03-26T00:53:41.368Z,7.20
2018-03-26T00:56:07.763Z,7.90
2018-03-26T00:58:34.056Z,8.07
2018-03-26T01:01:00.345Z,6.63
2018-03-26T01:03:26.670Z,8.03
2018-03-26T01:05:52.984Z,7.57
2018-03-26T01:08:19.331Z,7.50
2018-03-26T01:10:45.615Z,7.17
2018-03-26T01:13:11.907Z,6.60
2018-03-26T01:15:38.180Z,6.80
2018-03-26T01:18:04.460Z,7.17
2018-03-26T01:20:30.741Z,6.90
2018-03-26T01:22:57.000Z,7.23
2018-03-26T01:25:23.295Z,6.63
2018-03-26T01:27:49.566Z,7.17
2018-03-26T01:30:15.840Z,7.97
2018-03-26T01:32:42.141Z,6.93
2018-03-26T01:35:08.420Z,6.67
2018-03-26T01:37:34.732Z,7.00
2018-03-26T01:40:01.034Z,7.03
2018-03-26T01:42:27.331Z,7.13
2018-03-26T01:44:54.377Z,6.70
2018-03-26T01:47:21.400Z,7.10
2018-03-26T01:49:47.691Z,7.37
2018-03-26T01:52:14.118Z,6.30
2018-03-26T01:54:40.428Z,7.33
2018-03-26T01:57:06.712Z,6.23
2018-03-26T01:59:33.008Z,7.77
2018-03-26T02:01:59.321Z,7.60
2018-03-26T02:04:25.631Z,8.10
2018-03-26T02:06:52.661Z,7.67
2018-03-26T02:09:18.920Z,7.63
2018-03-26T02:11:45.948Z,7.37
2018-03-26T02:14:12.989Z,7.60
2018-03-26T02:16:39.292Z,7.27
2018-03-26T02:19:05.596Z,7.63
2018-03-26T02:21:31.932Z,7.83
2018-03-26T02:23:58.193Z,9.13
2018-03-26T02:26:24.593Z,8.27
2018-03-26T02:28:50.901Z,8.33
2018-03-26T02:31:17.919Z,8.43
2018-03-26T02:33:44.232Z,9.23
2018-03-26T02:36:10.501Z,8.40
2018-03-26T02:38:37.531Z,8.40
2018-03-26T02:41:03.825Z,9.07
2018-03-26T02:43:30.331Z,7.73
2018-03-26T02:45:56.646Z,7.70
2018-03-26T02:48:23.678Z,7.63
2018-03-26T02:50:49.961Z,8.27
2018-03-26T02:53:16.288Z,7.70
2018-03-26T02:55:42.620Z,8.57
2018-03-26T02:58:08.904Z,9.27
2018-03-26T03:00:35.997Z,8.20
2018-03-26T03:03:02.302Z,7.97
2018-03-26T03:05:29.328Z,8.47
2018-03-26T03:07:55.624Z,7.80
2018-03-26T03:10:21.913Z,8.03
2018-03-26T03:12:48.936Z,7.77
2018-03-26T03:15:15.226Z,8.00
2018-03-26T03:17:41.568Z,8.17
2018-03-26T03:20:07.985Z,7.80
2018-03-26T03:22:34.338Z,8.27
2018-03-26T03:25:00.637Z,7.70
2018-03-26T03:27:26.954Z,7.97
2018-03-26T03:29:53.989Z,8.30
2018-03-26T03:32:21.016Z,8.40
2018-03-26T03:34:47.301Z,7.50
2018-03-26T03:37:13.559Z,8.40
2018-03-26T03:39:39.899Z,9.43
2018-03-26T03:42:06.204Z,8.27
2018-03-26T03:44:32.525Z,8.27
2018-03-26T03:46:58.838Z,8.37
2018-03-26T03:49:25.156Z,8.83
2018-03-26T03:51:52.200Z,8.47
2018-03-26T03:54:19.296Z,7.77
2018-03-26T03:56:45.612Z,8.63
2018-03-26T03:59:11.941Z,10.77
2018-03-26T04:01:38.220Z,7.77
2018-03-26T04:04:04.499Z,7.70
2018-03-26T04:06:30.777Z,8.93
2018-03-26T04:08:57.071Z,8.10
2018-03-26T04:11:23.393Z,8.13
2018-03-26T04:13:49.700Z,8.63
2018-03-26T04:16:15.986Z,7.93
2018-03-26T04:18:42.399Z,7.87
2018-03-26T04:21:08.696Z,7.87
2018-03-26T04:23:34.977Z,8.17
2018-03-26T04:26:01.357Z,8.13
2018-03-26T04:28:27.637Z,9.57
2018-03-26T04:30:53.912Z,8.53
2018-03-26T04:33:20.937Z,8.50
2018-03-26T04:35:47.231Z,10.27
2018-03-26T04:38:13.528Z,8.97
2018-03-26T04:40:39.841Z,8.70
2018-03-26T04:43:06.861Z,8.60
2018-03-26T04:45:33.186Z,16.58
2018-03-26T04:47:59.465Z,13.10
2018-03-26T04:50:25.765Z,10.77
2018-03-26T04:52:52.170Z,9.87
2018-03-26T04:55:18.492Z,11.13
2018-03-26T04:57:44.901Z,11.30
2018-03-26T05:00:11.244Z,8.90
2018-03-26T05:02:37.540Z,11.10
2018-03-26T05:05:04.624Z,10.23
2018-03-26T05:07:30.948Z,10.00
2018-03-26T05:09:57.257Z,10.77
2018-03-26T05:12:24.333Z,9.87
2018-03-26T05:14:50.623Z,9.77
2018-03-26T05:17:17.674Z,10.73
2018-03-26T05:19:45.678Z,12.70
2018-03-26T05:22:12.045Z,12.00
2018-03-26T05:24:38.348Z,11.87
2018-03-26T05:27:04.656Z,13.23
2018-03-26T05:29:31.113Z,13.27
2018-03-26T05:31:57.434Z,11.40
2018-03-26T05:34:23.792Z,10.00
2018-03-26T05:36:50.208Z,11.60
2018-03-26T05:39:16.544Z,11.27
2018-03-26T05:41:42.852Z,13.43
2018-03-26T05:44:09.181Z,13.80
2018-03-26T05:46:35.513Z,12.90
2018-03-26T05:49:01.820Z,13.60
2018-03-26T05:51:28.868Z,13.57
2018-03-26T05:53:55.940Z,13.07
2018-03-26T05:56:22.216Z,12.37
2018-03-26T05:58:48.488Z,11.60
2018-03-26T06:01:15.533Z,12.03
2018-03-26T06:03:42.592Z,12.00
2018-03-26T06:06:08.865Z,11.27
2018-03-26T06:08:35.180Z,11.03
2018-03-26T06:11:01.617Z,12.43
2018-03-26T06:13:27.915Z,11.50
2018-03-26T06:15:54.179Z,11.30
2018-03-26T06:18:20.502Z,11.17
2018-03-26T06:20:46.856Z,12.17
2018-03-26T06:23:13.276Z,12.30
2018-03-26T06:25:39.588Z,13.00
2018-03-26T06:28:05.940Z,12.77
2018-03-26T06:30:32.479Z,11.40
2018-03-26T06:32:59.484Z,11.27
2018-03-26T06:35:25.785Z,11.37
2018-03-26T06:38:12.892Z,12.43
2018-03-26T06:40:39.196Z,12.17
2018-03-26T06:43:05.500Z,12.50
2018-03-26T06:45:31.820Z,15.00
2018-03-26T06:47:58.841Z,16.57
2018-03-26T06:50:25.137Z,16.23
2018-03-26T06:52:51.422Z,12.87
2018-03-26T06:55:18.461Z,14.33
2018-03-26T06:57:45.529Z,12.03
2018-03-26T07:00:11.876Z,15.60
2018-03-26T07:02:38.272Z,14.20
2018-03-26T07:05:05.371Z,19.50
2018-03-26T07:07:31.677Z,23.75
2018-03-26T07:09:58.731Z,15.50
2018-03-26T07:12:25.031Z,14.23
2018-03-26T07:14:51.393Z,22.90
2018-03-26T07:17:17.685Z,22.92
2018-03-26T07:19:44.084Z,18.07
2018-03-26T07:22:10.446Z,13.47
2018-03-26T07:24:36.758Z,13.90
2018-03-26T07:27:03.310Z,14.00
2018-03-26T07:29:29.610Z,14.57
2018-03-26T07:31:55.908Z,13.43
2018-03-26T07:34:23.082Z,15.53
2018-03-26T07:36:49.436Z,16.90
2018-03-26T07:39:15.768Z,12.33
2018-03-26T07:41:42.178Z,21.83
2018-03-26T07:44:08.495Z,16.57
2018-03-26T07:46:34.787Z,15.37
2018-03-26T07:49:01.170Z,23.17
2018-03-26T07:51:27.529Z,26.58
2018-03-26T07:53:53.815Z,17.47
2018-03-26T07:56:20.135Z,16.00
2018-03-26T07:58:47.165Z,24.40
2018-03-26T08:01:14.208Z,23.63
2018-03-26T08:03:40.488Z,17.63
2018-03-26T08:06:06.880Z,15.03
2018-03-26T08:08:33.955Z,14.10
2018-03-26T08:11:00.264Z,16.60
2018-03-26T08:13:27.312Z,16.20
2018-03-26T08:15:54.364Z,14.30
2018-03-26T08:18:22.332Z,15.33
2018-03-26T08:20:48.676Z,16.53
2018-03-26T08:23:15.119Z,23.62
2018-03-26T08:25:41.432Z,17.67
2018-03-26T08:28:08.448Z,18.10
2018-03-26T08:30:34.740Z,17.10
2018-03-26T08:33:01.026Z,15.23
2018-03-26T08:35:28.067Z,17.50
2018-03-26T08:37:54.352Z,15.60
2018-03-26T08:40:20.682Z,15.93
2018-03-26T08:42:47.072Z,14.60
2018-03-26T08:45:14.188Z,15.23
2018-03-26T08:47:40.840Z,16.37
2018-03-26T08:50:08.022Z,15.83
2018-03-26T08:52:34.313Z,14.70
2018-03-26T08:55:00.611Z,14.47
2018-03-26T08:57:26.949Z,14.60
2018-03-26T08:59:53.284Z,15.23
2018-03-26T09:02:19.639Z,14.57
2018-03-26T09:04:46.036Z,12.37
2018-03-26T09:07:12.374Z,13.97
2018-03-26T09:09:38.716Z,13.07
2018-03-26T09:12:05.144Z,13.80
2018-03-26T09:14:31.436Z,13.97
2018-03-26T09:16:58.518Z,15.07
2018-03-26T09:19:24.815Z,14.30
2018-03-26T09:21:51.933Z,16.50
2018-03-26T09:24:18.326Z,15.53
2018-03-26T09:26:44.645Z,14.60
2018-03-26T09:29:10.965Z,14.83
2018-03-26T09:31:38.220Z,14.40
2018-03-26T09:34:04.556Z,14.40
2018-03-26T09:36:30.896Z,13.87
2018-03-26T09:38:57.258Z,13.10
2018-03-26T09:41:23.614Z,13.77
2018-03-26T09:43:49.976Z,14.80
2018-03-26T09:46:16.312Z,16.37
2018-03-26T09:48:42.601Z,14.87
2018-03-26T09:51:08.944Z,15.30
2018-03-26T09:53:35.993Z,12.77
2018-03-26T09:56:03.060Z,13.87
2018-03-26T09:58:30.136Z,14.60
2018-03-26T10:01:01.379Z,13.27
2018-03-26T10:03:27.716Z,13.57
2018-03-26T10:05:54.000Z,14.87
2018-03-26T10:08:21.097Z,13.83
2018-03-26T10:10:47.426Z,15.77
2018-03-26T10:13:13.730Z,14.53
2018-03-26T10:15:40.131Z,15.07
2018-03-26T10:18:06.432Z,14.77
2018-03-26T10:20:32.776Z,18.93
2018-03-26T10:22:59.085Z,16.43
2018-03-26T10:25:25.402Z,16.73
2018-03-26T10:27:51.720Z,13.37
2018-03-26T10:30:18.058Z,15.83
2018-03-26T10:32:44.364Z,15.37
2018-03-26T10:35:11.416Z,14.67
2018-03-26T10:37:38.480Z,14.20
2018-03-26T10:40:04.756Z,17.50
2018-03-26T10:42:31.060Z,15.67
2018-03-26T10:44:57.391Z,16.03
2018-03-26T10:47:23.726Z,15.07
2018-03-26T10:49:50.118Z,16.37
2018-03-26T10:52:17.240Z,14.03
2018-03-26T10:54:43.601Z,14.97
2018-03-26T10:57:10.681Z,15.37
2018-03-26T10:59:36.976Z,15.07
2018-03-26T11:02:04.037Z,16.90
2018-03-26T11:04:30.352Z,14.53
2018-03-26T11:06:57.400Z,15.53
2018-03-26T11:09:24.469Z,15.53
2018-03-26T11:11:50.789Z,14.80
2018-03-26T11:14:17.824Z,14.07
2018-03-26T11:16:44.896Z,14.60
2018-03-26T11:19:12.197Z,14.80
2018-03-26T11:21:38.723Z,15.23
2018-03-26T11:24:05.333Z,14.83
2018-03-26T11:26:31.792Z,17.20
2018-03-26T11:28:58.076Z,15.87
2018-03-26T11:31:25.098Z,15.80
2018-03-26T11:33:51.374Z,16.63
2018-03-26T11:36:17.673Z,16.50
2018-03-26T11:38:44.033Z,14.77
2018-03-26T11:41:10.408Z,14.57
2018-03-26T11:43:36.942Z,15.33
2018-03-26T11:46:03.248Z,16.47
2018-03-26T11:48:29.550Z,17.93
2018-03-26T11:50:55.848Z,14.47
2018-03-26T11:53:22.132Z,14.73
2018-03-26T11:55:48.421Z,15.37
2018-03-26T11:58:15.571Z,14.00
2018-03-26T12:00:42.737Z,16.17
2018-03-26T12:03:09.788Z,15.00
2018-03-26T12:05:36.818Z,12.03
2018-03-26T12:08:03.091Z,12.50
2018-03-26T12:10:29.368Z,12.40
2018-03-26T12:12:55.669Z,14.20
2018-03-26T12:15:21.956Z,13.90
2018-03-26T12:17:48.999Z,12.23
2018-03-26T12:20:28.314Z,14.23
2018-03-26T12:22:54.653Z,13.10
2018-03-26T12:25:21.036Z,13.23
2018-03-26T12:28:00.076Z,12.43
2018-03-26T12:30:26.390Z,11.73
2018-03-26T12:32:52.718Z,12.83
2018-03-26T12:35:31.265Z,13.30
2018-03-26T12:37:57.559Z,11.57
2018-03-26T12:40:35.988Z,12.80
2018-03-26T12:43:02.322Z,10.83
2018-03-26T12:45:40.672Z,10.07
2018-03-26T12:48:06.972Z,12.80
2018-03-26T12:50:45.359Z,13.83
2018-03-26T12:53:11.682Z,13.20
2018-03-26T12:55:38.713Z,12.80
2018-03-26T12:58:17.902Z,12.07
2018-03-26T13:00:50.346Z,11.70
2018-03-26T13:03:16.650Z,11.13
2018-03-26T13:05:43.679Z,12.87
2018-03-26T13:08:09.957Z,13.30
2018-03-26T13:10:36.237Z,14.30
2018-03-26T13:13:02.568Z,13.70
2018-03-26T13:15:28.929Z,14.90
2018-03-26T13:17:55.953Z,13.67
2018-03-26T13:20:22.245Z,14.27
2018-03-26T13:22:48.520Z,13.47
2018-03-26T13:25:15.581Z,13.63
2018-03-26T13:27:42.604Z,14.73
2018-03-26T13:30:08.894Z,12.70
2018-03-26T13:32:35.229Z,14.83
2018-03-26T13:35:01.554Z,14.40
2018-03-26T13:37:27.852Z,13.10
2018-03-26T13:39:54.878Z,13.10
2018-03-26T13:42:21.197Z,12.60
2018-03-26T13:44:47.515Z,12.23
2018-03-26T13:47:13.823Z,17.10
2018-03-26T13:49:40.114Z,14.10
2018-03-26T13:52:07.178Z,16.70
2018-03-26T13:54:34.220Z,15.20
2018-03-26T13:57:01.276Z,15.43
2018-03-26T13:59:28.342Z,15.47
2018-03-26T14:01:54.660Z,17.33
2018-03-26T14:04:20.962Z,15.60
2018-03-26T14:06:47.275Z,15.13
2018-03-26T14:09:25.721Z,14.47
2018-03-26T14:12:04.960Z,15.57
2018-03-26T14:14:44.272Z,14.83
2018-03-26T14:17:22.611Z,15.37
2018-03-26T14:19:49.709Z,15.60
2018-03-26T14:22:16.062Z,16.40
2018-03-26T14:24:43.415Z,13.50
2018-03-26T14:27:10.527Z,14.80
2018-03-26T14:29:36.877Z,13.73
2018-03-26T14:32:03.194Z,16.23
2018-03-26T14:34:29.538Z,15.10
2018-03-26T14:36:56.091Z,15.93
2018-03-26T14:39:22.460Z,12.83
2018-03-26T14:41:49.497Z,11.83
2018-03-26T14:44:16.553Z,13.67
2018-03-26T14:46:43.620Z,15.00
2018-03-26T14:49:09.930Z,14.17
2018-03-26T14:51:37.010Z,13.97
2018-03-26T14:54:03.451Z,16.70
2018-03-26T14:56:29.909Z,13.43
2018-03-26T14:58:56.351Z,15.80
2018-03-26T15:01:22.948Z,15.03
2018-03-26T15:03:55.333Z,13.87
2018-03-26T15:06:21.705Z,15.23
2018-03-26T15:08:48.067Z,12.07
2018-03-26T15:11:14.360Z,13.80
2018-03-26T15:13:40.832Z,13.57
2018-03-26T15:16:07.345Z,12.87
2018-03-26T15:18:33.740Z,13.97
2018-03-26T15:21:00.053Z,13.50
2018-03-26T15:23:26.397Z,12.57
2018-03-26T15:25:52.717Z,14.23
2018-03-26T15:28:19.072Z,12.13
2018-03-26T15:30:45.389Z,10.43
2018-03-26T15:33:11.699Z,10.90
2018-03-26T15:35:38.053Z,11.77
2018-03-26T15:38:04.468Z,11.33
2018-03-26T15:40:30.804Z,12.77
2018-03-26T15:42:57.072Z,12.80
2018-03-26T15:45:23.426Z,12.73
2018-03-26T15:47:49.725Z,11.03
2018-03-26T15:50:16.030Z,10.77
2018-03-26T15:52:42.393Z,11.70
2018-03-26T15:55:08.697Z,14.07
2018-03-26T15:57:35.028Z,11.47
2018-03-26T16:00:01.406Z,11.10
2018-03-26T16:02:34.443Z,10.57
2018-03-26T16:05:01.153Z,10.37
2018-03-26T16:07:28.204Z,11.07
2018-03-26T16:09:54.802Z,10.47
2018-03-26T16:12:21.172Z,10.93
2018-03-26T16:14:47.467Z,10.67
2018-03-26T16:17:14.446Z,11.27
2018-03-26T16:19:42.043Z,9.53
2018-03-26T16:22:08.477Z,11.20
2018-03-26T16:24:34.821Z,10.80
2018-03-26T16:27:01.150Z,9.90
2018-03-26T16:29:27.440Z,9.60
2018-03-26T16:31:54.024Z,10.00
2018-03-26T16:34:20.437Z,10.40
2018-03-26T16:36:46.724Z,10.27
2018-03-26T16:39:14.197Z,10.07
2018-03-26T16:41:45.979Z,11.07
2018-03-26T16:44:12.332Z,11.20
2018-03-26T16:46:38.644Z,11.30
2018-03-26T16:49:04.982Z,9.60
2018-03-26T16:51:31.294Z,11.10
2018-03-26T16:53:57.582Z,10.83
2018-03-26T16:56:23.928Z,11.57
2018-03-26T16:58:50.994Z,9.70
2018-03-26T17:01:17.269Z,11.20
2018-03-26T17:03:43.652Z,10.67
2018-03-26T17:06:10.678Z,10.93
2018-03-26T17:08:37.873Z,9.80
2018-03-26T17:11:04.144Z,11.03
2018-03-26T17:13:30.568Z,10.00
2018-03-26T17:15:56.864Z,10.53
2018-03-26T17:18:23.235Z,9.80
2018-03-26T17:20:49.535Z,10.37
2018-03-26T17:23:15.866Z,10.83
2018-03-26T17:25:42.433Z,9.97
2018-03-26T17:28:08.833Z,11.00
2018-03-26T17:30:35.135Z,9.70
2018-03-26T17:33:01.620Z,10.80
2018-03-26T17:35:28.402Z,11.10
2018-03-26T17:37:55.444Z,10.30
2018-03-26T17:40:22.511Z,10.03
2018-03-26T17:42:48.800Z,11.10
2018-03-26T17:45:15.170Z,10.60
2018-03-26T17:47:41.460Z,12.33
2018-03-26T17:50:07.849Z,12.13
2018-03-26T17:52:34.176Z,12.03
2018-03-26T17:55:00.469Z,13.32
2018-03-26T17:57:26.881Z,13.30
2018-03-26T17:59:53.151Z,13.60
2018-03-26T18:02:20.282Z,14.70
2018-03-26T18:04:47.393Z,13.07
2018-03-26T18:07:13.677Z,13.73
2018-03-26T18:09:40.705Z,11.80
2018-03-26T18:12:07.002Z,11.97
2018-03-26T18:14:33.311Z,11.60
2018-03-26T18:16:59.621Z,10.27
2018-03-26T18:19:26.773Z,14.63
2018-03-26T18:21:53.100Z,11.77
2018-03-26T18:24:20.135Z,12.13
2018-03-26T18:26:47.303Z,13.60
2018-03-26T18:29:14.357Z,10.93
2018-03-26T18:31:40.682Z,18.50
2018-03-26T18:34:07.043Z,20.33
2018-03-26T18:36:33.397Z,14.77
2018-03-26T18:38:59.753Z,12.53
2018-03-26T18:41:27.109Z,13.10
2018-03-26T18:43:54.537Z,13.10
2018-03-26T18:46:20.970Z,12.47
2018-03-26T18:48:48.841Z,13.27
2018-03-26T18:51:15.492Z,12.83
2018-03-26T18:53:41.777Z,12.27
2018-03-26T18:56:08.094Z,11.93
2018-03-26T18:58:35.272Z,10.93
2018-03-26T19:01:01.610Z,11.67
2018-03-26T19:03:28.050Z,11.13
2018-03-26T19:05:54.389Z,11.20
2018-03-26T19:08:20.819Z,11.93
2018-03-26T19:10:47.142Z,12.27
2018-03-26T19:13:13.529Z,11.57
2018-03-26T19:15:40.044Z,11.70
2018-03-26T19:18:06.355Z,11.43
2018-03-26T19:20:32.692Z,11.33
2018-03-26T19:22:59.067Z,12.13
2018-03-26T19:25:25.385Z,11.50
2018-03-26T19:27:52.670Z,11.57
2018-03-26T19:30:18.997Z,12.43
2018-03-26T19:32:45.329Z,12.97
2018-03-26T19:35:11.673Z,13.07
2018-03-26T19:37:37.951Z,12.90
2018-03-26T19:40:05.016Z,12.83
2018-03-26T19:42:31.368Z,12.90
2018-03-26T19:44:57.710Z,14.20
2018-03-26T19:47:24.036Z,13.67
2018-03-26T19:49:50.722Z,16.23
2018-03-26T19:52:17.007Z,15.27
2018-03-26T19:54:43.272Z,12.97
2018-03-26T19:57:09.567Z,12.37
2018-03-26T19:59:35.816Z,12.07
2018-03-26T20:02:02.100Z,12.57
2018-03-26T20:04:29.157Z,13.33
2018-03-26T20:06:55.463Z,12.70
2018-03-26T20:09:22.572Z,12.90
2018-03-26T20:11:48.847Z,11.97
2018-03-26T20:14:15.897Z,13.73
2018-03-26T20:16:42.950Z,12.97
2018-03-26T20:19:10.068Z,11.77
2018-03-26T20:21:36.465Z,11.77
2018-03-26T20:24:02.799Z,11.27
2018-03-26T20:26:29.100Z,11.63
2018-03-26T20:28:56.136Z,12.27
2018-03-26T20:31:23.180Z,11.03
2018-03-26T20:33:49.483Z,12.98
2018-03-26T20:36:15.954Z,12.20
2018-03-26T20:38:43.012Z,12.67
2018-03-26T20:41:09.385Z,11.43
2018-03-26T20:43:35.694Z,11.63
2018-03-26T20:46:01.997Z,13.27
2018-03-26T20:48:29.069Z,12.97
2018-03-26T20:50:55.382Z,13.07
2018-03-26T20:53:21.655Z,12.00
2018-03-26T20:55:47.973Z,12.90
2018-03-26T20:58:14.272Z,11.37
2018-03-26T21:00:41.297Z,12.10
2018-03-26T21:03:08.379Z,12.73
2018-03-26T21:05:34.705Z,13.70
2018-03-26T21:08:01.012Z,12.70
2018-03-26T21:10:28.055Z,12.43
2018-03-26T21:12:54.443Z,16.57
2018-03-26T21:15:20.858Z,15.30
2018-03-26T21:17:47.184Z,14.77
2018-03-26T21:20:13.573Z,15.27
2018-03-26T21:22:39.880Z,14.13
2018-03-26T21:25:06.239Z,13.83
2018-03-26T21:27:32.637Z,15.87
2018-03-26T21:29:58.959Z,15.50
2018-03-26T21:32:25.334Z,14.13
2018-03-26T21:34:52.425Z,15.57
2018-03-26T21:37:18.734Z,15.27
2018-03-26T21:39:45.769Z,14.07
2018-03-26T21:42:12.467Z,16.13
2018-03-26T21:44:38.824Z,14.10
2018-03-26T21:47:05.203Z,15.23
2018-03-26T21:49:31.578Z,14.23
2018-03-26T21:51:57.912Z,13.67
2018-03-26T21:54:24.224Z,14.57
2018-03-26T21:56:50.660Z,14.37
2018-03-26T21:59:16.993Z,14.63
2018-03-26T22:01:43.455Z,15.13
2018-03-26T22:04:09.769Z,14.57
2018-03-26T22:06:36.102Z,14.77
2018-03-26T22:09:02.481Z,14.67
2018-03-26T22:11:29.531Z,15.37
2018-03-26T22:13:55.848Z,14.10
2018-03-26T22:16:22.958Z,13.90
2018-03-26T22:18:49.261Z,15.60
2018-03-26T22:21:15.600Z,12.87
2018-03-26T22:23:41.908Z,15.27
2018-03-26T22:26:08.236Z,14.40
2018-03-26T22:28:34.608Z,15.90
2018-03-26T22:31:00.913Z,17.53
2018-03-26T22:33:27.324Z,15.43
2018-03-26T22:35:54.365Z,17.00
2018-03-26T22:38:21.437Z,14.57
2018-03-26T22:40:47.742Z,14.83
2018-03-26T22:43:14.821Z,17.30
2018-03-26T22:45:41.134Z,16.33
2018-03-26T22:48:08.153Z,15.10
2018-03-26T22:50:34.447Z,15.27
2018-03-26T22:53:00.759Z,18.10
2018-03-26T22:55:27.056Z,17.53
2018-03-26T22:57:53.369Z,14.47
2018-03-26T23:00:19.780Z,15.40
2018-03-26T23:02:46.083Z,16.40
2018-03-26T23:05:12.399Z,16.43
2018-03-26T23:07:38.700Z,13.97
2018-03-26T23:10:04.998Z,15.27
2018-03-26T23:12:31.333Z,16.50
2018-03-26T23:14:57.660Z,14.60
2018-03-26T23:17:23.961Z,16.27
2018-03-26T23:19:50.325Z,15.90
2018-03-26T23:22:28.764Z,15.93
2018-03-26T23:24:55.113Z,14.83
2018-03-26T23:27:21.479Z,17.70
2018-03-26T23:29:47.818Z,15.17
2018-03-26T23:32:14.124Z,15.60
2018-03-26T23:34:41.172Z,16.03
2018-03-26T23:37:08.224Z,17.53
2018-03-26T23:39:35.261Z,17.80
2018-03-26T23:42:02.320Z,17.47
2018-03-26T23:44:29.416Z,17.67
2018-03-26T23:46:55.733Z,17.97
2018-03-26T23:49:22.065Z,15.30
2018-03-26T23:51:48.382Z,17.40
2018-03-26T23:54:14.713Z,16.80
2018-03-26T23:56:41.045Z,16.93
2018-03-26T23:59:07.353Z,19.07
